sensor_id;sensor_type;location;lat;lon;timestamp;noise_LAeq;noise_LA_min;noise_LA_max;noise_LA01;noise_LA95
64545;Laerm;50936;51.660;5.616;2023-04-03T00:01:05;44.33;38.67;51.84;;
64545;Laerm;50936;51.660;5.616;2023-04-03T00:03:33;47.15;39.70;59.54;;
64545;Laerm;50936;51.660;5.616;2023-04-03T00:06:01;54.03;39.46;70.03;;
64545;Laerm;50936;51.660;5.616;2023-04-03T00:08:27;42.26;39.46;43.86;;
64545;Laerm;50936;51.660;5.616;2023-04-03T00:10:57;55.84;39.92;73.25;;
64545;Laerm;50936;51.660;5.616;2023-04-03T00:13:25;42.51;39.81;58.41;;
64545;Laerm;50936;51.660;5.616;2023-04-03T00:15:52;43.98;40.33;53.45;;
64545;Laerm;50936;51.660;5.616;2023-04-03T00:18:19;42.48;40.33;43.90;;
64545;Laerm;50936;51.660;5.616;2023-04-03T00:20:47;42.50;40.53;43.90;;
64545;Laerm;50936;51.660;5.616;2023-04-03T00:23:14;42.40;40.43;43.77;;
64545;Laerm;50936;51.660;5.616;2023-04-03T00:25:41;42.76;40.13;53.78;;
64545;Laerm;50936;51.660;5.616;2023-04-03T00:28:09;45.39;40.62;55.47;;
64545;Laerm;50936;51.660;5.616;2023-04-03T00:30:36;44.30;40.89;55.08;;
64545;Laerm;50936;51.660;5.616;2023-04-03T00:33:04;46.83;40.53;58.27;;
64545;Laerm;50936;51.660;5.616;2023-04-03T00:35:31;42.51;39.92;45.23;;
64545;Laerm;50936;51.660;5.616;2023-04-03T00:37:58;43.13;40.13;50.19;;
64545;Laerm;50936;51.660;5.616;2023-04-03T00:40:27;42.97;40.03;48.61;;
64545;Laerm;50936;51.660;5.616;2023-04-03T00:42:59;42.28;39.70;43.81;;
64545;Laerm;50936;51.660;5.616;2023-04-03T00:45:35;50.86;39.70;65.83;;
64545;Laerm;50936;51.660;5.616;2023-04-03T00:48:05;42.27;39.34;46.33;;
64545;Laerm;50936;51.660;5.616;2023-04-03T00:50:38;42.21;38.37;43.72;;
64545;Laerm;50936;51.660;5.616;2023-04-03T00:53:11;42.63;38.87;52.18;;
64545;Laerm;50936;51.660;5.616;2023-04-03T00:55:39;42.91;39.81;48.70;;
64545;Laerm;50936;51.660;5.616;2023-04-03T00:58:08;42.83;39.34;50.94;;
64545;Laerm;50936;51.660;5.616;2023-04-03T01:00:41;52.06;40.03;68.56;;
64545;Laerm;50936;51.660;5.616;2023-04-03T01:03:09;42.26;39.21;43.72;;
64545;Laerm;50936;51.660;5.616;2023-04-03T01:05:38;42.33;38.81;44.31;;
64545;Laerm;50936;51.660;5.616;2023-04-03T01:08:06;55.90;39.70;73.04;;
64545;Laerm;50936;51.660;5.616;2023-04-03T01:10:33;42.80;39.46;46.10;;
64545;Laerm;50936;51.660;5.616;2023-04-03T01:13:00;43.40;40.71;47.54;;
64545;Laerm;50936;51.660;5.616;2023-04-03T01:15:28;42.39;39.11;44.35;;
64545;Laerm;50936;51.660;5.616;2023-04-03T01:18:01;43.16;40.33;48.37;;
64545;Laerm;50936;51.660;5.616;2023-04-03T01:25:48;42.34;39.81;48.02;;
64545;Laerm;50936;51.660;5.616;2023-04-03T01:28:25;43.12;39.34;50.69;;
64545;Laerm;50936;51.660;5.616;2023-04-03T01:33:47;42.36;38.52;48.43;;
64545;Laerm;50936;51.660;5.616;2023-04-03T01:36:19;42.52;39.08;50.39;;
64545;Laerm;50936;51.660;5.616;2023-04-03T01:38:48;43.04;39.46;48.78;;
64545;Laerm;50936;51.660;5.616;2023-04-03T01:41:15;50.72;40.33;66.92;;
64545;Laerm;50936;51.660;5.616;2023-04-03T01:43:44;45.11;39.46;57.48;;
64545;Laerm;50936;51.660;5.616;2023-04-03T01:46:11;43.41;39.08;50.54;;
64545;Laerm;50936;51.660;5.616;2023-04-03T01:48:38;46.06;39.92;57.85;;
64545;Laerm;50936;51.660;5.616;2023-04-03T01:51:05;44.09;39.21;56.25;;
64545;Laerm;50936;51.660;5.616;2023-04-03T01:53:32;52.57;40.13;68.90;;
64545;Laerm;50936;51.660;5.616;2023-04-03T01:55:59;52.19;38.67;67.38;;
64545;Laerm;50936;51.660;5.616;2023-04-03T01:58:26;42.37;39.46;46.57;;
64545;Laerm;50936;51.660;5.616;2023-04-03T02:00:53;42.62;39.70;46.30;;
64545;Laerm;50936;51.660;5.616;2023-04-03T02:03:21;42.63;40.13;45.01;;
64545;Laerm;50936;51.660;5.616;2023-04-03T02:05:49;51.50;40.62;69.88;;
64545;Laerm;50936;51.660;5.616;2023-04-03T02:08:16;53.34;39.92;70.29;;
64545;Laerm;50936;51.660;5.616;2023-04-03T02:10:48;42.67;40.03;44.83;;
64545;Laerm;50936;51.660;5.616;2023-04-03T02:13:17;50.19;39.78;65.40;;
64545;Laerm;50936;51.660;5.616;2023-04-03T02:15:45;51.35;40.53;66.11;;
64545;Laerm;50936;51.660;5.616;2023-04-03T02:18:15;53.11;39.58;70.53;;
64545;Laerm;50936;51.660;5.616;2023-04-03T02:20:42;43.70;40.23;52.36;;
64545;Laerm;50936;51.660;5.616;2023-04-03T02:23:10;49.26;40.43;73.72;;
64545;Laerm;50936;51.660;5.616;2023-04-03T02:25:37;44.02;41.11;49.32;;
64545;Laerm;50936;51.660;5.616;2023-04-03T02:28:05;44.29;40.33;53.93;;
64545;Laerm;50936;51.660;5.616;2023-04-03T02:30:32;52.36;40.62;69.66;;
64545;Laerm;50936;51.660;5.616;2023-04-03T02:33:00;44.08;40.71;50.92;;
64545;Laerm;50936;51.660;5.616;2023-04-03T02:35:26;43.80;40.71;49.29;;
64545;Laerm;50936;51.660;5.616;2023-04-03T02:37:56;46.55;40.23;58.59;;
64545;Laerm;50936;51.660;5.616;2023-04-03T02:40:23;45.28;41.46;54.63;;
64545;Laerm;50936;51.660;5.616;2023-04-03T02:42:51;43.43;40.33;56.23;;
64545;Laerm;50936;51.660;5.616;2023-04-03T02:45:19;53.20;40.98;68.13;;
64545;Laerm;50936;51.660;5.616;2023-04-03T02:47:46;45.37;39.92;58.04;;
64545;Laerm;50936;51.660;5.616;2023-04-03T02:50:13;49.53;40.53;65.82;;
64545;Laerm;50936;51.660;5.616;2023-04-03T02:52:40;55.14;41.22;69.02;;
64545;Laerm;50936;51.660;5.616;2023-04-03T02:55:08;43.22;40.71;53.33;;
64545;Laerm;50936;51.660;5.616;2023-04-03T02:57:35;54.15;41.30;70.29;;
64545;Laerm;50936;51.660;5.616;2023-04-03T03:00:02;50.87;41.89;65.41;;
64545;Laerm;50936;51.660;5.616;2023-04-03T03:02:29;55.54;41.81;69.54;;
64545;Laerm;50936;51.660;5.616;2023-04-03T03:04:56;46.35;41.38;55.62;;
64545;Laerm;50936;51.660;5.616;2023-04-03T03:07:23;44.21;41.46;53.16;;
64545;Laerm;50936;51.660;5.616;2023-04-03T03:09:51;49.08;41.61;60.59;;
64545;Laerm;50936;51.660;5.616;2023-04-03T03:12:18;51.64;41.82;75.06;;
64545;Laerm;50936;51.660;5.616;2023-04-03T03:14:49;52.59;41.61;71.06;;
64545;Laerm;50936;51.660;5.616;2023-04-03T03:17:17;57.04;41.46;73.94;;
64545;Laerm;50936;51.660;5.616;2023-04-03T03:19:44;55.34;41.53;67.73;;
64545;Laerm;50936;51.660;5.616;2023-04-03T03:22:12;51.79;42.41;65.34;;
64545;Laerm;50936;51.660;5.616;2023-04-03T03:24:39;57.71;43.58;77.61;;
64545;Laerm;50936;51.660;5.616;2023-04-03T03:27:06;58.33;43.68;71.89;;
64545;Laerm;50936;51.660;5.616;2023-04-03T03:29:33;55.00;44.11;73.71;;
64545;Laerm;50936;51.660;5.616;2023-04-03T03:32:01;47.29;42.82;56.34;;
64545;Laerm;50936;51.660;5.616;2023-04-03T03:34:27;54.73;43.04;69.61;;
64545;Laerm;50936;51.660;5.616;2023-04-03T03:36:54;56.43;42.53;68.64;;
64545;Laerm;50936;51.660;5.616;2023-04-03T03:39:22;52.63;43.04;67.89;;
64545;Laerm;50936;51.660;5.616;2023-04-03T03:41:49;56.24;43.34;70.97;;
64545;Laerm;50936;51.660;5.616;2023-04-03T03:44:16;47.82;42.71;62.98;;
64545;Laerm;50936;51.660;5.616;2023-04-03T03:46:44;55.22;42.35;68.30;;
64545;Laerm;50936;51.660;5.616;2023-04-03T03:49:11;50.28;42.35;61.15;;
64545;Laerm;50936;51.660;5.616;2023-04-03T03:51:39;55.14;43.29;68.50;;
64545;Laerm;50936;51.660;5.616;2023-04-03T03:54:07;53.08;43.24;68.29;;
64545;Laerm;50936;51.660;5.616;2023-04-03T03:56:35;49.98;43.24;58.08;;
64545;Laerm;50936;51.660;5.616;2023-04-03T03:59:02;55.96;43.72;74.77;;
64545;Laerm;50936;51.660;5.616;2023-04-03T04:01:31;57.39;43.29;71.60;;
64545;Laerm;50936;51.660;5.616;2023-04-03T04:03:59;57.23;44.83;73.70;;
64545;Laerm;50936;51.660;5.616;2023-04-03T04:06:30;53.54;45.04;63.92;;
64545;Laerm;50936;51.660;5.616;2023-04-03T04:09:01;62.32;45.77;81.85;;
64545;Laerm;50936;51.660;5.616;2023-04-03T04:11:29;55.76;44.43;67.25;;
64545;Laerm;50936;51.660;5.616;2023-04-03T04:13:56;57.26;44.27;71.92;;
64545;Laerm;50936;51.660;5.616;2023-04-03T04:16:26;54.94;44.58;68.49;;
64545;Laerm;50936;51.660;5.616;2023-04-03T04:18:55;49.62;44.58;59.80;;
64545;Laerm;50936;51.660;5.616;2023-04-03T04:21:22;50.63;44.08;61.24;;
64545;Laerm;50936;51.660;5.616;2023-04-03T04:23:51;55.26;45.01;74.56;;
64545;Laerm;50936;51.660;5.616;2023-04-03T04:26:19;58.13;46.57;69.19;;
64545;Laerm;50936;51.660;5.616;2023-04-03T04:28:47;58.57;47.32;72.78;;
64545;Laerm;50936;51.660;5.616;2023-04-03T04:31:14;61.96;45.66;76.20;;
64545;Laerm;50936;51.660;5.616;2023-04-03T04:33:41;56.44;44.51;69.09;;
64545;Laerm;50936;51.660;5.616;2023-04-03T04:36:11;56.16;44.62;68.11;;
64545;Laerm;50936;51.660;5.616;2023-04-03T04:38:38;57.33;45.51;70.43;;
64545;Laerm;50936;51.660;5.616;2023-04-03T04:41:07;60.82;45.48;73.73;;
64545;Laerm;50936;51.660;5.616;2023-04-03T04:43:34;63.42;49.15;77.44;;
64545;Laerm;50936;51.660;5.616;2023-04-03T04:46:09;59.50;47.68;69.49;;
64545;Laerm;50936;51.660;5.616;2023-04-03T04:48:44;59.34;48.94;68.92;;
64545;Laerm;50936;51.660;5.616;2023-04-03T04:51:12;61.27;48.12;69.57;;
64545;Laerm;50936;51.660;5.616;2023-04-03T04:53:41;59.88;46.43;70.34;;
64545;Laerm;50936;51.660;5.616;2023-04-03T04:56:13;57.83;46.18;77.34;;
64545;Laerm;50936;51.660;5.616;2023-04-03T04:58:41;59.16;43.81;73.75;;
64545;Laerm;50936;51.660;5.616;2023-04-03T05:01:10;57.88;45.17;69.03;;
64545;Laerm;50936;51.660;5.616;2023-04-03T05:03:46;64.36;50.85;76.73;;
64545;Laerm;50936;51.660;5.616;2023-04-03T05:06:15;60.14;48.15;73.23;;
64545;Laerm;50936;51.660;5.616;2023-04-03T05:08:42;59.76;48.61;72.07;;
64545;Laerm;50936;51.660;5.616;2023-04-03T05:11:09;63.58;50.81;79.78;;
64545;Laerm;50936;51.660;5.616;2023-04-03T05:13:38;62.04;51.06;72.43;;
64545;Laerm;50936;51.660;5.616;2023-04-03T05:16:05;60.71;47.30;74.45;;
64545;Laerm;50936;51.660;5.616;2023-04-03T05:18:32;66.17;46.15;89.49;;
64545;Laerm;50936;51.660;5.616;2023-04-03T05:21:04;63.75;51.88;77.91;;
64545;Laerm;50936;51.660;5.616;2023-04-03T05:23:31;60.33;47.83;70.41;;
64545;Laerm;50936;51.660;5.616;2023-04-03T05:26:01;61.21;48.76;71.40;;
64545;Laerm;50936;51.660;5.616;2023-04-03T05:28:29;60.12;45.80;69.84;;
64545;Laerm;50936;51.660;5.616;2023-04-03T05:30:58;63.15;50.04;76.73;;
64545;Laerm;50936;51.660;5.616;2023-04-03T05:33:30;62.34;51.80;72.65;;
64545;Laerm;50936;51.660;5.616;2023-04-03T05:36:05;63.37;50.65;71.36;;
64545;Laerm;50936;51.660;5.616;2023-04-03T05:38:36;58.53;46.80;74.46;;
64545;Laerm;50936;51.660;5.616;2023-04-03T05:41:03;62.97;51.83;73.53;;
64545;Laerm;50936;51.660;5.616;2023-04-03T05:43:30;63.55;49.38;76.39;;
64545;Laerm;50936;51.660;5.616;2023-04-03T05:45:58;61.50;49.38;69.56;;
64545;Laerm;50936;51.660;5.616;2023-04-03T05:48:26;64.93;53.47;75.44;;
64545;Laerm;50936;51.660;5.616;2023-04-03T05:50:53;64.01;53.11;75.98;;
64545;Laerm;50936;51.660;5.616;2023-04-03T05:53:28;63.91;53.89;74.16;;
64545;Laerm;50936;51.660;5.616;2023-04-03T05:56:00;62.65;53.46;72.54;;
64545;Laerm;50936;51.660;5.616;2023-04-03T05:58:30;65.59;50.96;76.09;;
64545;Laerm;50936;51.660;5.616;2023-04-03T06:00:57;62.33;51.09;71.65;;
64545;Laerm;50936;51.660;5.616;2023-04-03T06:03:24;63.25;52.45;74.82;;
64545;Laerm;50936;51.660;5.616;2023-04-03T06:05:52;63.84;50.07;75.75;;
64545;Laerm;50936;51.660;5.616;2023-04-03T06:08:19;62.88;48.49;72.91;;
64545;Laerm;50936;51.660;5.616;2023-04-03T06:10:46;62.90;49.89;72.72;;
64545;Laerm;50936;51.660;5.616;2023-04-03T06:13:14;64.52;50.36;79.75;;
64545;Laerm;50936;51.660;5.616;2023-04-03T06:15:42;62.22;52.33;77.19;;
64545;Laerm;50936;51.660;5.616;2023-04-03T06:18:08;63.10;52.26;73.52;;
64545;Laerm;50936;51.660;5.616;2023-04-03T06:20:36;64.44;54.16;77.68;;
64545;Laerm;50936;51.660;5.616;2023-04-03T06:23:04;63.21;52.29;70.36;;
64545;Laerm;50936;51.660;5.616;2023-04-03T06:25:34;71.77;52.47;88.54;;
64545;Laerm;50936;51.660;5.616;2023-04-03T06:28:01;65.17;56.00;79.91;;
64545;Laerm;50936;51.660;5.616;2023-04-03T06:30:28;64.51;54.10;73.34;;
64545;Laerm;50936;51.660;5.616;2023-04-03T06:32:55;62.75;52.63;79.20;;
64545;Laerm;50936;51.660;5.616;2023-04-03T06:35:22;67.09;54.00;85.02;;
64545;Laerm;50936;51.660;5.616;2023-04-03T06:37:50;64.85;52.20;78.43;;
64545;Laerm;50936;51.660;5.616;2023-04-03T06:40:23;64.19;54.09;75.40;;
64545;Laerm;50936;51.660;5.616;2023-04-03T06:42:50;64.43;53.11;78.83;;
64545;Laerm;50936;51.660;5.616;2023-04-03T06:45:18;63.62;52.07;79.49;;
64545;Laerm;50936;51.660;5.616;2023-04-03T06:47:46;65.29;55.24;78.86;;
64545;Laerm;50936;51.660;5.616;2023-04-03T06:50:12;63.84;52.28;81.47;;
64545;Laerm;50936;51.660;5.616;2023-04-03T06:52:41;65.30;54.63;79.61;;
64545;Laerm;50936;51.660;5.616;2023-04-03T06:55:09;64.49;52.69;76.39;;
64545;Laerm;50936;51.660;5.616;2023-04-03T06:57:37;64.49;51.64;76.29;;
64545;Laerm;50936;51.660;5.616;2023-04-03T07:00:06;64.93;52.66;80.31;;
64545;Laerm;50936;51.660;5.616;2023-04-03T07:02:33;62.72;52.04;76.26;;
64545;Laerm;50936;51.660;5.616;2023-04-03T07:05:00;63.96;50.28;73.16;;
64545;Laerm;50936;51.660;5.616;2023-04-03T07:07:27;64.62;49.73;77.30;;
64545;Laerm;50936;51.660;5.616;2023-04-03T07:09:54;62.52;48.15;76.56;;
64545;Laerm;50936;51.660;5.616;2023-04-03T07:12:21;61.49;49.94;71.21;;
64545;Laerm;50936;51.660;5.616;2023-04-03T07:14:48;63.52;51.26;76.17;;
64545;Laerm;50936;51.660;5.616;2023-04-03T07:17:15;64.18;55.00;76.32;;
64545;Laerm;50936;51.660;5.616;2023-04-03T07:19:42;62.13;47.90;77.43;;
64545;Laerm;50936;51.660;5.616;2023-04-03T07:22:09;63.22;51.68;78.37;;
64545;Laerm;50936;51.660;5.616;2023-04-03T07:24:37;63.78;51.85;72.16;;
64545;Laerm;50936;51.660;5.616;2023-04-03T07:27:04;62.74;51.40;70.46;;
64545;Laerm;50936;51.660;5.616;2023-04-03T07:29:32;68.93;55.18;82.21;;
64545;Laerm;50936;51.660;5.616;2023-04-03T07:31:58;62.99;53.03;73.28;;
64545;Laerm;50936;51.660;5.616;2023-04-03T07:34:26;62.55;51.60;71.16;;
64545;Laerm;50936;51.660;5.616;2023-04-03T07:36:53;62.79;52.51;70.63;;
64545;Laerm;50936;51.660;5.616;2023-04-03T07:39:19;64.86;51.50;77.40;;
64545;Laerm;50936;51.660;5.616;2023-04-03T07:41:46;62.28;50.39;79.25;;
64545;Laerm;50936;51.660;5.616;2023-04-03T07:44:13;63.08;52.57;79.27;;
64545;Laerm;50936;51.660;5.616;2023-04-03T07:46:40;66.30;50.85;86.76;;
64545;Laerm;50936;51.660;5.616;2023-04-03T07:49:09;66.23;53.82;91.54;;
64545;Laerm;50936;51.660;5.616;2023-04-03T07:51:35;65.94;53.97;85.80;;
64545;Laerm;50936;51.660;5.616;2023-04-03T07:54:03;64.32;53.00;75.50;;
64545;Laerm;50936;51.660;5.616;2023-04-03T07:56:30;63.54;50.32;73.24;;
64545;Laerm;50936;51.660;5.616;2023-04-03T07:58:58;61.23;50.51;72.21;;
64545;Laerm;50936;51.660;5.616;2023-04-03T08:01:25;64.39;52.31;76.22;;
64545;Laerm;50936;51.660;5.616;2023-04-03T08:03:52;62.91;53.12;75.58;;
64545;Laerm;50936;51.660;5.616;2023-04-03T08:06:19;62.71;51.87;70.28;;
64545;Laerm;50936;51.660;5.616;2023-04-03T08:09:03;61.54;49.20;71.62;;
64545;Laerm;50936;51.660;5.616;2023-04-03T08:11:31;61.67;50.47;75.99;;
64545;Laerm;50936;51.660;5.616;2023-04-03T08:13:58;62.62;52.44;71.88;;
64545;Laerm;50936;51.660;5.616;2023-04-03T08:16:25;65.10;56.00;79.91;;
64545;Laerm;50936;51.660;5.616;2023-04-03T08:18:54;66.20;52.15;83.92;;
64545;Laerm;50936;51.660;5.616;2023-04-03T08:21:22;64.84;53.83;78.96;;
64545;Laerm;50936;51.660;5.616;2023-04-03T08:23:51;77.95;52.67;92.66;;
64545;Laerm;50936;51.660;5.616;2023-04-03T08:26:23;72.85;54.66;86.64;;
64545;Laerm;50936;51.660;5.616;2023-04-03T08:28:50;66.28;53.52;76.96;;
64545;Laerm;50936;51.660;5.616;2023-04-03T08:31:19;65.80;54.72;81.62;;
64545;Laerm;50936;51.660;5.616;2023-04-03T08:33:47;65.29;51.90;79.72;;
64545;Laerm;50936;51.660;5.616;2023-04-03T08:36:20;81.28;55.99;102.12;;
64545;Laerm;50936;51.660;5.616;2023-04-03T08:38:50;68.19;55.33;81.10;;
64545;Laerm;50936;51.660;5.616;2023-04-03T08:47:24;64.40;50.61;81.97;;
64545;Laerm;50936;51.660;5.616;2023-04-03T08:50:02;63.71;53.50;77.33;;
64545;Laerm;50936;51.660;5.616;2023-04-03T08:52:56;62.87;52.47;74.03;;
64545;Laerm;50936;51.660;5.616;2023-04-03T08:58:14;62.04;48.80;74.10;;
64545;Laerm;50936;51.660;5.616;2023-04-03T09:00:58;64.83;51.91;81.89;;
64545;Laerm;50936;51.660;5.616;2023-04-03T09:03:32;64.19;51.22;75.99;;
64545;Laerm;50936;51.660;5.616;2023-04-03T09:06:26;62.91;51.87;75.14;;
64545;Laerm;50936;51.660;5.616;2023-04-03T09:09:37;63.40;50.66;75.59;;
64545;Laerm;50936;51.660;5.616;2023-04-03T09:12:33;63.45;53.62;74.61;;
64545;Laerm;50936;51.660;5.616;2023-04-03T09:15:18;65.21;54.45;78.18;;
64545;Laerm;50936;51.660;5.616;2023-04-03T09:18:30;65.91;56.25;83.49;;
64545;Laerm;50936;51.660;5.616;2023-04-03T09:21:48;65.02;51.37;80.81;;
64545;Laerm;50936;51.660;5.616;2023-04-03T09:24:15;64.40;54.11;78.21;;
64545;Laerm;50936;51.660;5.616;2023-04-03T09:26:58;62.97;50.60;75.68;;
64545;Laerm;50936;51.660;5.616;2023-04-03T09:29:27;66.32;52.97;86.78;;
64545;Laerm;50936;51.660;5.616;2023-04-03T09:32:01;64.10;52.76;79.32;;
64545;Laerm;50936;51.660;5.616;2023-04-03T09:34:36;63.88;54.28;78.87;;
64545;Laerm;50936;51.660;5.616;2023-04-03T09:37:05;66.21;53.72;80.62;;
64545;Laerm;50936;51.660;5.616;2023-04-03T09:39:53;65.34;52.06;82.36;;
64545;Laerm;50936;51.660;5.616;2023-04-03T09:42:24;63.83;49.03;77.03;;
64545;Laerm;50936;51.660;5.616;2023-04-03T09:45:04;63.64;52.49;75.99;;
64545;Laerm;50936;51.660;5.616;2023-04-03T09:47:34;65.02;50.88;86.08;;
64545;Laerm;50936;51.660;5.616;2023-04-03T09:52:48;67.50;53.41;85.70;;
64545;Laerm;50936;51.660;5.616;2023-04-03T09:55:21;64.72;55.67;81.68;;
64545;Laerm;50936;51.660;5.616;2023-04-03T09:58:03;63.30;52.12;76.39;;
64545;Laerm;50936;51.660;5.616;2023-04-03T10:00:36;66.01;56.74;78.34;;
64545;Laerm;50936;51.660;5.616;2023-04-03T10:03:27;63.79;52.83;76.64;;
64545;Laerm;50936;51.660;5.616;2023-04-03T10:05:55;64.80;50.29;82.55;;
64545;Laerm;50936;51.660;5.616;2023-04-03T10:08:28;63.16;51.31;82.50;;
64545;Laerm;50936;51.660;5.616;2023-04-03T10:11:25;65.62;54.43;81.35;;
64545;Laerm;50936;51.660;5.616;2023-04-03T10:14:01;66.26;55.72;83.45;;
64545;Laerm;50936;51.660;5.616;2023-04-03T10:16:41;63.32;48.78;75.19;;
64545;Laerm;50936;51.660;5.616;2023-04-03T10:19:33;64.09;52.11;77.31;;
64545;Laerm;50936;51.660;5.616;2023-04-03T10:28:10;72.39;52.00;96.84;;
64545;Laerm;50936;51.660;5.616;2023-04-03T10:31:06;64.69;53.75;77.83;;
64545;Laerm;50936;51.660;5.616;2023-04-03T10:39:34;67.24;54.76;83.86;;
64545;Laerm;50936;51.660;5.616;2023-04-03T10:42:37;66.32;50.75;82.21;;
64545;Laerm;50936;51.660;5.616;2023-04-03T10:48:26;68.11;55.15;84.85;;
64545;Laerm;50936;51.660;5.616;2023-04-03T10:54:11;68.51;56.90;93.04;;
64545;Laerm;50936;51.660;5.616;2023-04-03T10:56:57;67.58;56.15;85.58;;
64545;Laerm;50936;51.660;5.616;2023-04-03T10:59:53;67.45;51.83;86.02;;
64545;Laerm;50936;51.660;5.616;2023-04-03T11:02:30;64.08;52.95;84.73;;
64545;Laerm;50936;51.660;5.616;2023-04-03T11:05:05;67.78;53.09;85.85;;
64545;Laerm;50936;51.660;5.616;2023-04-03T11:07:43;64.47;52.36;78.99;;
64545;Laerm;50936;51.660;5.616;2023-04-03T11:10:23;65.97;51.03;84.12;;
64545;Laerm;50936;51.660;5.616;2023-04-03T11:13:15;62.68;48.73;76.00;;
64545;Laerm;50936;51.660;5.616;2023-04-03T11:15:44;63.26;50.32;81.38;;
64545;Laerm;50936;51.660;5.616;2023-04-03T11:18:22;64.04;51.73;80.15;;
64545;Laerm;50936;51.660;5.616;2023-04-03T11:21:28;64.76;47.81;82.78;;
64545;Laerm;50936;51.660;5.616;2023-04-03T11:23:57;67.47;51.04;86.39;;
64545;Laerm;50936;51.660;5.616;2023-04-03T11:26:37;64.52;51.62;83.25;;
64545;Laerm;50936;51.660;5.616;2023-04-03T11:29:21;64.46;53.65;83.00;;
64545;Laerm;50936;51.660;5.616;2023-04-03T11:34:56;66.40;54.54;79.17;;
64545;Laerm;50936;51.660;5.616;2023-04-03T11:37:39;64.66;51.00;79.32;;
64545;Laerm;50936;51.660;5.616;2023-04-03T11:40:24;65.48;52.02;87.15;;
64545;Laerm;50936;51.660;5.616;2023-04-03T11:43:07;63.22;51.07;78.63;;
64545;Laerm;50936;51.660;5.616;2023-04-03T11:46:04;64.36;52.96;81.51;;
64545;Laerm;50936;51.660;5.616;2023-04-03T11:51:37;65.27;52.90;80.17;;
64545;Laerm;50936;51.660;5.616;2023-04-03T11:53:49;65.97;52.12;86.37;;
64545;Laerm;50936;51.660;5.616;2023-04-03T12:04:22;64.81;53.45;81.86;;
64545;Laerm;50936;51.660;5.616;2023-04-03T12:07:18;65.77;53.64;84.29;;
64545;Laerm;50936;51.660;5.616;2023-04-03T12:12:28;62.90;55.77;78.87;;
64545;Laerm;50936;51.660;5.616;2023-04-03T12:15:19;66.03;55.14;80.37;;
64545;Laerm;50936;51.660;5.616;2023-04-03T12:17:47;63.68;51.38;83.49;;
64545;Laerm;50936;51.660;5.616;2023-04-03T12:23:33;65.01;53.04;83.93;;
64545;Laerm;50936;51.660;5.616;2023-04-03T12:26:21;68.47;52.40;86.53;;
64545;Laerm;50936;51.660;5.616;2023-04-03T12:28:53;64.87;57.70;82.70;;
64545;Laerm;50936;51.660;5.616;2023-04-03T12:31:24;64.71;54.48;78.63;;
64545;Laerm;50936;51.660;5.616;2023-04-03T12:37:05;65.85;56.61;90.17;;
64545;Laerm;50936;51.660;5.616;2023-04-03T12:39:50;65.36;53.67;79.71;;
64545;Laerm;50936;51.660;5.616;2023-04-03T12:45:17;63.74;55.46;77.53;;
64545;Laerm;50936;51.660;5.616;2023-04-03T12:47:49;65.05;56.33;78.79;;
64545;Laerm;50936;51.660;5.616;2023-04-03T12:50:28;65.51;50.96;84.74;;
64545;Laerm;50936;51.660;5.616;2023-04-03T12:55:38;65.87;54.38;81.66;;
64545;Laerm;50936;51.660;5.616;2023-04-03T12:58:24;64.92;53.17;77.81;;
64545;Laerm;50936;51.660;5.616;2023-04-03T13:01:24;63.59;52.80;79.36;;
64545;Laerm;50936;51.660;5.616;2023-04-03T13:03:58;64.13;55.73;77.18;;
64545;Laerm;50936;51.660;5.616;2023-04-03T13:06:44;65.04;56.21;85.29;;
64545;Laerm;50936;51.660;5.616;2023-04-03T13:09:30;63.42;54.13;76.72;;
64545;Laerm;50936;51.660;5.616;2023-04-03T13:12:12;65.52;55.53;80.09;;
64545;Laerm;50936;51.660;5.616;2023-04-03T13:14:40;63.76;53.19;78.78;;
64545;Laerm;50936;51.660;5.616;2023-04-03T13:17:15;64.87;55.12;79.22;;
64545;Laerm;50936;51.660;5.616;2023-04-03T13:19:45;67.40;56.30;82.10;;
64545;Laerm;50936;51.660;5.616;2023-04-03T13:24:56;64.62;54.52;86.09;;
64545;Laerm;50936;51.660;5.616;2023-04-03T13:27:25;65.62;55.07;82.35;;
64545;Laerm;50936;51.660;5.616;2023-04-03T13:29:57;65.36;54.54;78.61;;
64545;Laerm;50936;51.660;5.616;2023-04-03T13:32:27;63.90;55.17;76.72;;
64545;Laerm;50936;51.660;5.616;2023-04-03T13:34:55;67.60;56.13;85.23;;
64545;Laerm;50936;51.660;5.616;2023-04-03T13:37:33;67.07;57.12;90.70;;
64545;Laerm;50936;51.660;5.616;2023-04-03T13:42:39;66.20;50.58;84.42;;
64545;Laerm;50936;51.660;5.616;2023-04-03T13:45:25;65.51;55.09;80.66;;
64545;Laerm;50936;51.660;5.616;2023-04-03T13:48:16;65.67;55.87;81.97;;
64545;Laerm;50936;51.660;5.616;2023-04-03T13:51:01;65.58;56.55;83.87;;
64545;Laerm;50936;51.660;5.616;2023-04-03T13:53:33;63.98;50.24;82.38;;
64545;Laerm;50936;51.660;5.616;2023-04-03T13:58:32;69.22;56.40;86.61;;
64545;Laerm;50936;51.660;5.616;2023-04-03T14:01:20;64.51;52.39;76.18;;
64545;Laerm;50936;51.660;5.616;2023-04-03T14:04:17;64.70;50.42;86.75;;
64545;Laerm;50936;51.660;5.616;2023-04-03T14:06:46;68.02;56.56;84.08;;
64545;Laerm;50936;51.660;5.616;2023-04-03T14:09:15;67.30;55.14;82.89;;
64545;Laerm;50936;51.660;5.616;2023-04-03T14:11:44;64.13;57.06;75.60;;
64545;Laerm;50936;51.660;5.616;2023-04-03T14:14:27;65.84;55.00;87.19;;
64545;Laerm;50936;51.660;5.616;2023-04-03T14:16:58;65.09;53.71;82.49;;
64545;Laerm;50936;51.660;5.616;2023-04-03T14:19:32;64.48;55.41;77.32;;
64545;Laerm;50936;51.660;5.616;2023-04-03T14:22:20;65.52;52.00;85.99;;
64545;Laerm;50936;51.660;5.616;2023-04-03T14:24:49;62.20;54.31;75.75;;
64545;Laerm;50936;51.660;5.616;2023-04-03T14:27:28;71.08;57.66;98.64;;
64545;Laerm;50936;51.660;5.616;2023-04-03T14:29:58;67.01;52.44;84.51;;
64545;Laerm;50936;51.660;5.616;2023-04-03T14:32:26;66.21;54.21;84.02;;
64545;Laerm;50936;51.660;5.616;2023-04-03T14:34:54;64.36;51.90;81.64;;
64545;Laerm;50936;51.660;5.616;2023-04-03T14:37:28;65.65;51.81;82.25;;
64545;Laerm;50936;51.660;5.616;2023-04-03T14:39:58;64.48;55.26;79.45;;
64545;Laerm;50936;51.660;5.616;2023-04-03T14:42:35;68.21;55.26;85.54;;
64545;Laerm;50936;51.660;5.616;2023-04-03T14:45:11;66.32;56.13;83.34;;
64545;Laerm;50936;51.660;5.616;2023-04-03T14:47:46;65.17;53.86;79.70;;
64545;Laerm;50936;51.660;5.616;2023-04-03T14:50:19;67.39;55.77;85.80;;
64545;Laerm;50936;51.660;5.616;2023-04-03T14:52:54;65.23;56.38;77.09;;
64545;Laerm;50936;51.660;5.616;2023-04-03T14:55:24;63.23;52.49;73.58;;
64545;Laerm;50936;51.660;5.616;2023-04-03T14:57:53;64.55;53.29;78.73;;
64545;Laerm;50936;51.660;5.616;2023-04-03T15:00:22;64.42;54.55;76.14;;
64545;Laerm;50936;51.660;5.616;2023-04-03T15:02:50;64.73;53.80;77.94;;
64545;Laerm;50936;51.660;5.616;2023-04-03T15:05:17;64.73;55.58;77.65;;
64545;Laerm;50936;51.660;5.616;2023-04-03T15:07:53;64.54;56.21;75.22;;
64545;Laerm;50936;51.660;5.616;2023-04-03T15:10:26;64.81;56.16;77.96;;
64545;Laerm;50936;51.660;5.616;2023-04-03T15:12:55;64.82;56.84;75.67;;
64545;Laerm;50936;51.660;5.616;2023-04-03T15:15:23;65.34;52.06;78.03;;
64545;Laerm;50936;51.660;5.616;2023-04-03T15:17:54;65.69;56.50;80.23;;
64545;Laerm;50936;51.660;5.616;2023-04-03T15:20:26;65.92;53.98;82.41;;
64545;Laerm;50936;51.660;5.616;2023-04-03T15:22:54;63.95;53.40;75.85;;
64545;Laerm;50936;51.660;5.616;2023-04-03T15:25:23;66.77;56.55;92.49;;